Time;durP1;ratioP1;P1;durP2;ratioP2;P2;SDS_P1;SDS_P2;PMS_P1;PMS_P2;Temp;Humidity;BMP_temperature;BMP_pressure;BME280_temperature;BME280_humidity;BME280_pressure;Samples;Min_cycle;Max_cycle;Signal;HPM_P1;HPM_P2
2022/07/24 00:02:13;;;;;;;3.97;1.50;;;;;;;14.43;92.01;101158.81;5182579;28;20117;-74
2022/07/24 00:04:44;;;;;;;5.85;2.10;;;;;;;14.28;93.54;101167.34;5177561;28;20034;-74
2022/07/24 00:07:14;;;;;;;5.03;1.33;;;;;;;14.31;91.80;101163.75;5180961;28;20032;-74
2022/07/24 00:09:44;;;;;;;3.13;1.10;;;;;;;13.91;94.76;101168.88;5181398;28;20026;-74
2022/07/24 00:12:15;;;;;;;2.78;1.00;;;;;;;13.92;94.79;101165.34;5181363;28;20487;-74
2022/07/24 00:14:45;;;;;;;5.90;1.10;;;;;;;13.99;93.99;101162.41;5181243;28;20037;-74
2022/07/24 00:17:16;;;;;;;5.32;1.48;;;;;;;13.96;93.68;101170.41;5180558;28;20030;-74
2022/07/24 00:19:46;;;;;;;3.67;1.13;;;;;;;14.27;91.65;101167.44;5182856;28;20041;-74
2022/07/24 00:22:16;;;;;;;3.42;1.60;;;;;;;14.50;90.08;101164.69;5182431;28;20022;-74
2022/07/24 00:24:47;;;;;;;6.40;1.20;;;;;;;14.43;89.55;101163.25;5180962;28;20480;-74
2022/07/24 00:27:17;;;;;;;5.50;1.20;;;;;;;14.32;90.77;101168.97;5181179;28;20168;-74
2022/07/24 00:29:48;;;;;;;4.57;1.90;;;;;;;14.46;90.50;101161.31;5181985;28;20032;-74
2022/07/24 00:32:18;;;;;;;3.65;1.30;;;;;;;14.22;89.77;101158.88;5180816;28;20022;-74
2022/07/24 00:34:48;;;;;;;3.47;1.40;;;;;;;14.06;92.95;101153.34;5181997;28;20022;-74
2022/07/24 00:37:19;;;;;;;4.20;0.90;;;;;;;13.62;94.01;101158.66;5182109;28;20037;-74
2022/07/24 00:39:49;;;;;;;5.60;1.25;;;;;;;13.43;95.32;101161.09;5180339;28;20034;-74
2022/07/24 00:42:20;;;;;;;5.22;0.95;;;;;;;13.34;97.37;101158.84;5220559;22;20045;-73
2022/07/24 00:44:50;;;;;;;1.65;0.70;;;;;;;13.77;93.44;101171.19;5199235;28;20033;-73
2022/07/24 00:47:21;;;;;;;2.00;1.00;;;;;;;13.38;94.43;101164.84;5200594;28;20491;-73
2022/07/24 00:49:51;;;;;;;5.22;0.80;;;;;;;13.31;93.31;101171.22;5202003;28;20075;-73
2022/07/24 00:52:21;;;;;;;4.00;0.80;;;;;;;13.18;95.74;101167.34;5214665;28;20037;-73
2022/07/24 00:54:53;;;;;;;6.82;0.98;;;;;;;13.63;92.86;101165.63;5185560;28;20457;-73
2022/07/24 00:57:23;;;;;;;2.10;1.05;;;;;;;13.58;92.64;101165.78;5197225;28;20025;-70
2022/07/24 00:59:54;;;;;;;2.63;0.90;;;;;;;13.74;92.48;101173.94;5200357;28;20453;-72
2022/07/24 01:02:24;;;;;;;4.60;1.00;;;;;;;13.75;92.65;101173.03;5199797;28;20048;-72
2022/07/24 01:04:55;;;;;;;3.75;1.00;;;;;;;13.82;92.15;101163.97;5200522;28;20510;-73
2022/07/24 01:07:25;;;;;;;3.17;1.10;;;;;;;13.34;93.94;101166.72;5201494;28;20029;-73
2022/07/24 01:09:56;;;;;;;5.55;1.20;;;;;;;13.05;98.20;101166.09;5200517;28;20095;-73
2022/07/24 01:12:26;;;;;;;2.28;1.25;;;;;;;12.86;100.00;101172.00;5201051;28;20060;-73
2022/07/24 01:14:57;;;;;;;6.88;1.40;;;;;;;13.00;100.00;101166.25;5199948;28;20030;-73
2022/07/24 01:17:31;;;;;;;4.35;1.23;;;;;;;13.23;98.82;101158.38;5201210;28;20526;-73
2022/07/24 01:20:04;;;;;;;4.68;0.95;;;;;;;13.56;96.81;101158.91;5200512;28;20454;-73
2022/07/24 01:22:35;;;;;;;2.35;1.30;;;;;;;13.67;94.04;101161.94;5200026;28;20044;-73
2022/07/24 01:25:06;;;;;;;4.65;1.38;;;;;;;13.71;92.84;101156.53;5201822;28;20188;-72
2022/07/24 01:27:36;;;;;;;6.20;2.22;;;;;;;13.28;94.99;101160.84;5199115;28;20445;-72
2022/07/24 01:30:07;;;;;;;4.05;1.85;;;;;;;12.93;98.41;101161.28;5201599;28;20033;-73
2022/07/24 01:32:38;;;;;;;4.30;1.48;;;;;;;12.56;100.00;101159.94;5199413;28;20021;-73
2022/07/24 01:35:08;;;;;;;3.38;1.30;;;;;;;12.41;100.00;101157.84;5201295;28;20037;-73
2022/07/24 01:37:39;;;;;;;3.33;1.20;;;;;;;12.47;100.00;101162.91;5199310;28;20517;-71
2022/07/24 01:40:10;;;;;;;4.20;1.80;;;;;;;12.60;100.00;101165.03;5199458;28;20442;-73
2022/07/24 01:42:40;;;;;;;5.55;2.47;;;;;;;12.42;100.00;101159.56;5199547;28;20113;-73
2022/07/24 01:45:10;;;;;;;5.10;2.22;;;;;;;12.73;98.55;101155.84;5201199;28;20029;-72
2022/07/24 01:47:43;;;;;;;6.55;1.40;;;;;;;12.51;97.80;101154.88;5199430;28;20457;-73
2022/07/24 01:50:14;;;;;;;4.65;1.00;;;;;;;12.04;100.00;101152.97;5199113;28;20037;-73
2022/07/24 01:52:45;;;;;;;4.30;1.20;;;;;;;11.95;100.00;101157.66;5195922;28;20431;-72
2022/07/24 01:55:15;;;;;;;4.93;1.40;;;;;;;12.12;100.00;101143.09;5182774;28;20037;-72
2022/07/24 01:57:45;;;;;;;6.93;1.50;;;;;;;12.17;100.00;101150.81;5198938;28;20021;-73
2022/07/24 02:00:16;;;;;;;2.83;1.00;;;;;;;12.01;100.00;101152.19;5200432;28;20372;-73
2022/07/24 02:02:47;;;;;;;3.25;1.05;;;;;;;12.27;100.00;101153.06;5200002;28;20021;-73
2022/07/24 02:05:17;;;;;;;2.78;1.10;;;;;;;12.27;100.00;101155.69;5199437;28;20044;-73
2022/07/24 02:07:55;;;;;;;1.80;1.08;;;;;;;12.48;98.66;101162.81;5200554;28;20052;-72
2022/07/24 02:10:27;;;;;;;2.80;1.20;;;;;;;12.36;100.00;101165.88;5200031;28;20056;-73
2022/07/24 02:12:58;;;;;;;1.85;1.00;;;;;;;12.47;99.33;101171.59;5199265;28;20029;-72
2022/07/24 02:15:28;;;;;;;3.38;1.27;;;;;;;12.23;100.00;101159.31;5199509;28;20033;-72
2022/07/24 02:18:00;;;;;;;5.20;1.88;;;;;;;12.04;100.00;101160.84;5198459;28;20029;-72
2022/07/24 02:20:30;;;;;;;6.30;1.27;;;;;;;11.98;100.00;101161.00;5182056;28;20035;-73
2022/07/24 02:23:01;;;;;;;2.47;1.20;;;;;;;11.90;100.00;101151.69;5199955;28;20029;-73
2022/07/24 02:25:31;;;;;;;5.57;1.27;;;;;;;11.67;100.00;101155.03;5200438;28;20467;-72
2022/07/24 02:28:02;;;;;;;3.60;1.10;;;;;;;11.79;100.00;101151.19;5199867;28;20059;-73
2022/07/24 02:30:32;;;;;;;1.85;1.00;;;;;;;12.02;100.00;101153.91;5199010;28;20025;-73
2022/07/24 02:33:02;;;;;;;5.57;1.30;;;;;;;11.95;100.00;101148.00;5198565;28;20029;-72
2022/07/24 02:35:33;;;;;;;4.18;1.10;;;;;;;11.81;100.00;101144.13;5198418;28;20041;-73
2022/07/24 02:38:04;;;;;;;3.42;1.15;;;;;;;11.60;100.00;101153.50;5197970;28;20525;-73
2022/07/24 02:40:34;;;;;;;2.63;1.10;;;;;;;11.60;100.00;101156.13;5198399;28;20159;-73
2022/07/24 02:43:05;;;;;;;2.67;1.35;;;;;;;11.51;100.00;101153.75;5199945;28;20025;-73
2022/07/24 02:45:35;;;;;;;3.05;1.20;;;;;;;11.90;100.00;101151.69;5198553;28;20063;-73
2022/07/24 02:48:06;;;;;;;1.90;1.00;;;;;;;11.77;100.00;101163.47;5197732;28;20041;-69
2022/07/24 02:50:38;;;;;;;2.28;1.00;;;;;;;11.79;100.00;101165.13;5198706;28;20025;-73
2022/07/24 02:53:09;;;;;;;3.85;1.08;;;;;;;11.85;100.00;101167.56;5182215;28;20033;-73
2022/07/24 02:55:39;;;;;;;3.13;1.10;;;;;;;11.83;100.00;101158.91;5197390;28;20026;-73
2022/07/24 02:58:09;;;;;;;2.88;1.08;;;;;;;11.75;100.00;101158.25;5197486;28;20021;-73
2022/07/24 03:00:40;;;;;;;7.63;1.40;;;;;;;11.84;100.00;101160.63;5197899;28;20110;-72
2022/07/24 03:03:10;;;;;;;2.63;1.25;;;;;;;11.75;100.00;101167.91;5198592;28;20033;-72
2022/07/24 03:05:41;;;;;;;1.88;1.00;;;;;;;11.76;100.00;101167.84;5199646;28;20127;-73
2022/07/24 03:08:11;;;;;;;2.88;1.30;;;;;;;11.57;100.00;101160.56;5197774;28;20025;-73
2022/07/24 03:10:41;;;;;;;3.92;1.30;;;;;;;11.69;100.00;101165.44;5197787;28;20029;-73
2022/07/24 03:13:12;;;;;;;3.80;1.08;;;;;;;11.56;100.00;101172.81;5198330;28;20017;-72
2022/07/24 03:15:42;;;;;;;2.25;1.10;;;;;;;11.79;100.00;101174.75;5198230;28;20203;-72
2022/07/24 03:18:13;;;;;;;1.95;1.27;;;;;;;11.67;100.00;101170.75;5182432;28;20033;-72
2022/07/24 03:20:43;;;;;;;1.70;1.05;;;;;;;11.63;100.00;101166.50;5202208;28;20029;-72
2022/07/24 03:23:13;;;;;;;5.05;1.25;;;;;;;11.92;100.00;101173.47;5202116;28;20486;-73
2022/07/24 03:25:44;;;;;;;3.60;1.17;;;;;;;11.94;100.00;101175.13;5202009;28;20390;-72
2022/07/24 03:28:15;;;;;;;5.82;1.00;;;;;;;12.00;100.00;101172.31;5203050;28;20028;-73
2022/07/24 03:30:45;;;;;;;3.25;1.13;;;;;;;11.72;100.00;101171.47;5202031;28;20029;-73
2022/07/24 03:33:15;;;;;;;5.60;1.25;;;;;;;11.54;100.00;101171.97;5201781;28;20383;-73
2022/07/24 03:35:46;;;;;;;2.67;1.10;;;;;;;11.85;100.00;101169.31;5201933;28;20041;-72
2022/07/24 03:38:16;;;;;;;1.50;1.10;;;;;;;11.95;100.00;101179.44;5201165;28;20029;-73
2022/07/24 03:40:47;;;;;;;10.60;1.40;;;;;;;11.73;100.00;101186.25;5201895;28;20021;-73
2022/07/24 03:43:17;;;;;;;3.33;1.30;;;;;;;11.77;100.00;101173.94;5203187;28;20028;-72
2022/07/24 03:45:48;;;;;;;4.75;1.33;;;;;;;12.22;100.00;101168.09;5201972;28;20037;-73
2022/07/24 03:48:18;;;;;;;3.45;1.20;;;;;;;12.32;99.83;101179.13;5202113;28;20021;-73
2022/07/24 03:50:49;;;;;;;2.10;1.17;;;;;;;12.25;99.75;101182.84;5202052;28;20033;-73
2022/07/24 03:53:19;;;;;;;6.05;1.52;;;;;;;12.48;97.85;101181.19;5201510;28;20017;-73
2022/07/24 03:55:49;;;;;;;4.68;1.38;;;;;;;12.32;98.00;101190.44;5201042;28;20411;-73
2022/07/24 03:58:20;;;;;;;3.17;1.50;;;;;;;12.07;100.00;101186.94;5200721;28;20161;-73
2022/07/24 04:00:50;;;;;;;4.65;1.30;;;;;;;12.00;100.00;101185.41;5202725;28;20025;-73
2022/07/24 04:03:20;;;;;;;9.55;1.88;;;;;;;11.91;100.00;101185.69;5201380;28;20459;-73
2022/07/24 04:05:51;;;;;;;16.27;3.80;;;;;;;11.84;100.00;101176.31;5201333;28;20037;-72
2022/07/24 04:08:22;;;;;;;37.10;15.10;;;;;;;11.86;100.00;101173.66;5200684;28;20483;-72
2022/07/24 04:10:56;;;;;;;28.48;9.90;;;;;;;11.95;100.00;101173.38;5203614;28;20486;-73
2022/07/24 04:13:29;;;;;;;27.98;11.57;;;;;;;12.08;100.00;101174.66;5202744;28;20510;-73
2022/07/24 04:15:59;;;;;;;17.80;6.40;;;;;;;12.08;100.00;101178.16;5201365;28;20083;-73
2022/07/24 04:18:30;;;;;;;8.07;3.45;;;;;;;11.95;100.00;101176.00;5201178;28;20021;-73
2022/07/24 04:21:00;;;;;;;8.15;3.08;;;;;;;11.87;100.00;101176.22;5200578;28;20042;-73
2022/07/24 04:23:31;;;;;;;6.60;3.08;;;;;;;12.21;100.00;101176.88;5202663;28;20025;-73
2022/07/24 04:26:01;;;;;;;11.32;4.05;;;;;;;12.33;100.00;101173.81;5200808;28;20147;-72
2022/07/24 04:28:32;;;;;;;7.57;2.90;;;;;;;12.58;100.00;101172.09;5200356;28;20025;-73
2022/07/24 04:31:02;;;;;;;5.53;2.55;;;;;;;12.67;99.56;101177.03;5201182;28;20036;-73
2022/07/24 04:33:33;;;;;;;4.10;2.25;;;;;;;12.51;100.00;101168.00;5201983;28;20061;-73
2022/07/24 04:36:05;;;;;;;4.93;1.80;;;;;;;12.77;100.00;101169.72;5201205;28;20029;-72
2022/07/24 04:38:35;;;;;;;3.28;1.58;;;;;;;12.83;100.00;101172.94;5185677;28;20071;-72
2022/07/24 04:41:06;;;;;;;4.55;2.60;;;;;;;13.27;100.00;101161.75;5201628;28;20021;-73
2022/07/24 04:43:36;;;;;;;4.07;1.90;;;;;;;13.82;97.82;101161.34;5201032;28;20029;-73
2022/07/24 04:46:06;;;;;;;3.72;2.05;;;;;;;14.48;94.32;101156.88;5199896;28;20032;-72
2022/07/24 04:48:37;;;;;;;6.80;2.30;;;;;;;16.10;87.77;101146.72;5201236;28;20475;-73
2022/07/24 04:51:08;;;;;;;3.20;1.30;;;;;;;17.80;81.46;101152.66;5199854;28;20033;-73
2022/07/24 04:53:38;;;;;;;3.38;1.10;;;;;;;18.40;77.69;101157.09;5200246;28;20030;-73
2022/07/24 04:56:08;;;;;;;3.47;1.05;;;;;;;20.01;73.70;101157.56;5199683;28;20026;-73
2022/07/24 04:58:39;;;;;;;2.08;1.02;;;;;;;19.89;73.14;101149.53;5200930;28;20036;-74
2022/07/24 05:01:09;;;;;;;2.03;0.85;;;;;;;20.58;69.88;101150.22;5200620;28;20469;-74
2022/07/24 05:03:40;;;;;;;0.98;0.50;;;;;;;21.40;70.52;101149.75;5200360;28;20099;-74
2022/07/24 05:06:10;;;;;;;2.67;0.88;;;;;;;22.14;65.30;101147.84;5200238;28;20033;-74
2022/07/24 05:08:41;;;;;;;2.35;1.00;;;;;;;22.30;66.85;101153.72;5199369;28;20518;-74
2022/07/24 05:11:11;;;;;;;3.15;0.77;;;;;;;22.08;65.67;101153.63;5201654;28;20162;-73
2022/07/24 05:13:42;;;;;;;2.05;0.77;;;;;;;22.50;65.21;101158.44;5200103;28;20032;-74
2022/07/24 05:16:12;;;;;;;3.65;1.00;;;;;;;21.71;68.99;101155.44;5200272;28;20029;-74
2022/07/24 05:18:42;;;;;;;3.85;0.90;;;;;;;23.09;63.75;101145.75;5199649;28;20112;-74
2022/07/24 05:21:14;;;;;;;3.42;1.05;;;;;;;22.81;64.59;101148.84;5199667;28;20437;-74
2022/07/24 05:23:44;;;;;;;2.47;0.90;;;;;;;24.09;62.34;101139.41;5180071;28;20026;-74
2022/07/24 05:26:15;;;;;;;2.10;0.93;;;;;;;23.38;63.42;101143.50;5199862;28;20030;-74
2022/07/24 05:28:45;;;;;;;5.90;1.08;;;;;;;22.36;66.81;101150.59;5200000;28;20025;-74
2022/07/24 05:31:16;;;;;;;2.33;0.88;;;;;;;23.82;62.80;101135.41;5201300;28;20519;-74
2022/07/24 05:33:46;;;;;;;5.72;0.90;;;;;;;23.85;63.67;101136.06;5199730;28;20121;-74
2022/07/24 05:36:16;;;;;;;1.88;0.80;;;;;;;24.53;62.30;101136.56;5199606;28;20414;-74
2022/07/24 05:38:47;;;;;;;4.22;1.00;;;;;;;25.69;57.80;101124.53;5199624;28;20059;-74
2022/07/24 05:41:18;;;;;;;1.60;0.80;;;;;;;23.45;63.46;101136.69;5200573;28;20025;-74
2022/07/24 05:43:48;;;;;;;4.32;1.08;;;;;;;24.03;62.87;101137.22;5201172;28;20028;-74
2022/07/24 05:46:18;;;;;;;3.28;1.00;;;;;;;24.99;59.92;101137.03;5199431;28;20033;-74
2022/07/24 05:48:49;;;;;;;2.45;1.10;;;;;;;24.33;61.10;101139.19;5199257;28;20373;-74
2022/07/24 05:51:19;;;;;;;2.75;0.90;;;;;;;24.82;60.89;101135.78;5200623;28;20026;-74
2022/07/24 05:53:50;;;;;;;1.02;0.70;;;;;;;25.20;60.45;101140.56;5200195;28;20360;-74
2022/07/24 05:56:20;;;;;;;4.15;1.00;;;;;;;23.79;63.75;101141.00;5198828;28;20026;-74
2022/07/24 05:58:51;;;;;;;2.28;1.00;;;;;;;25.19;59.04;101134.38;5179432;28;20125;-74
2022/07/24 06:01:21;;;;;;;3.15;0.90;;;;;;;24.44;60.41;101123.97;5199762;28;20255;-74
2022/07/24 06:03:51;;;;;;;4.07;0.75;;;;;;;25.36;59.87;101127.53;5199493;28;20041;-74
2022/07/24 06:06:22;;;;;;;4.65;0.82;;;;;;;24.97;59.87;101128.28;5199538;28;20025;-73
2022/07/24 06:08:52;;;;;;;4.35;1.25;;;;;;;24.92;60.58;101122.47;5198050;28;20033;-73
2022/07/24 06:11:23;;;;;;;3.25;1.10;;;;;;;23.85;62.19;101136.06;5200431;28;20025;-74
2022/07/24 06:13:54;;;;;;;3.88;0.98;;;;;;;22.56;67.10;101136.69;5199358;28;20029;-74
2022/07/24 06:16:24;;;;;;;1.65;0.75;;;;;;;22.47;66.52;101134.69;5198315;28;20053;-73
2022/07/24 06:18:55;;;;;;;2.45;1.00;;;;;;;22.92;65.21;101127.56;5199179;28;20099;-73
2022/07/24 06:21:26;;;;;;;2.13;1.00;;;;;;;22.46;66.69;101127.66;5199041;28;20037;-73
2022/07/24 06:23:56;;;;;;;2.03;0.80;;;;;;;23.13;65.30;101125.91;5199902;28;20029;-74
2022/07/24 06:26:26;;;;;;;2.70;0.90;;;;;;;23.43;65.74;101118.16;5199683;28;20036;-74
2022/07/24 06:28:57;;;;;;;4.45;1.00;;;;;;;22.73;66.28;101124.63;5197454;28;20087;-74
2022/07/24 06:31:27;;;;;;;2.33;1.10;;;;;;;22.75;67.33;101120.00;5199200;28;20457;-73
2022/07/24 06:33:58;;;;;;;2.95;1.00;;;;;;;23.53;65.59;101123.59;5198559;28;20033;-74
2022/07/24 06:36:28;;;;;;;3.78;0.90;;;;;;;22.93;66.68;101125.72;5198133;28;20036;-73
2022/07/24 06:38:59;;;;;;;2.60;0.95;;;;;;;23.02;66.78;101117.84;5199642;28;20268;-74
2022/07/24 06:41:29;;;;;;;2.47;0.80;;;;;;;23.46;65.31;101114.38;5218835;22;20046;-75
2022/07/24 06:43:59;;;;;;;4.32;1.42;;;;;;;24.45;63.47;101108.75;5180523;28;20051;-75
2022/07/24 06:46:30;;;;;;;3.85;0.90;;;;;;;24.60;62.32;101112.84;5190982;28;20342;-75
2022/07/24 06:49:00;;;;;;;2.72;0.70;;;;;;;24.34;62.58;101112.34;5189572;28;20049;-75
2022/07/24 06:51:30;;;;;;;2.15;0.70;;;;;;;25.23;60.09;101113.50;5187906;28;20604;-75
2022/07/24 06:54:01;;;;;;;5.57;0.85;;;;;;;24.41;62.91;101118.03;5183623;28;20030;-75
2022/07/24 06:56:31;;;;;;;1.98;0.80;;;;;;;25.25;60.49;101111.53;5185325;28;20117;-72
2022/07/24 06:59:02;;;;;;;5.28;1.00;;;;;;;25.01;61.14;101111.00;5189247;28;20034;-75
2022/07/24 07:01:32;;;;;;;3.45;0.80;;;;;;;25.47;59.16;101098.00;5188249;28;20044;-74
2022/07/24 07:04:02;;;;;;;4.78;0.93;;;;;;;25.96;59.45;101097.94;5190572;28;20026;-75
2022/07/24 07:06:33;;;;;;;5.25;0.90;;;;;;;25.76;59.59;101090.84;5165739;28;20034;-74
2022/07/24 07:09:03;;;;;;;2.40;0.90;;;;;;;26.23;59.23;101084.72;5185098;28;20289;-75
2022/07/24 07:11:33;;;;;;;3.45;0.90;;;;;;;25.76;59.74;101086.34;5178826;28;20021;-75
2022/07/24 07:14:04;;;;;;;4.22;1.10;;;;;;;25.21;60.91;101092.25;5178588;28;20430;-75
2022/07/24 07:16:34;;;;;;;6.03;0.82;;;;;;;25.88;61.01;101093.31;5177938;28;20458;-75
2022/07/24 07:19:05;;;;;;;4.82;1.17;;;;;;;27.70;56.52;101074.81;5181978;28;20025;-76
2022/07/24 07:21:37;;;;;;;2.58;0.63;;;;;;;27.39;54.89;101075.28;5189960;28;20080;-75
2022/07/24 07:24:07;;;;;;;4.18;1.20;;;;;;;26.93;56.04;101078.00;5183145;28;20030;-75
2022/07/24 07:26:38;;;;;;;4.60;1.27;;;;;;;27.98;55.19;101071.09;5177743;28;20232;-75
2022/07/24 07:29:08;;;;;;;2.75;1.30;;;;;;;28.50;54.20;101067.56;5176918;28;20057;-75
2022/07/24 07:31:38;;;;;;;1.65;0.60;;;;;;;27.31;55.24;101065.28;5180546;28;20028;-75
2022/07/24 07:34:09;;;;;;;4.88;1.20;;;;;;;27.58;55.34;101056.41;5179435;28;20475;-75
2022/07/24 07:36:39;;;;;;;3.33;0.73;;;;;;;27.82;55.24;101052.13;5188731;28;20021;-75
2022/07/24 07:39:10;;;;;;;1.55;0.70;;;;;;;28.45;53.45;101060.97;5163720;28;20414;-74
2022/07/24 07:41:40;;;;;;;4.70;0.90;;;;;;;27.98;55.39;101057.66;5176685;28;20026;-75
2022/07/24 07:44:11;;;;;;;6.28;0.90;;;;;;;30.39;50.53;101047.94;5175638;28;20017;-73
2022/07/24 07:46:41;;;;;;;2.15;0.73;;;;;;;30.46;50.86;101048.13;5173035;28;20022;-76
2022/07/24 07:49:12;;;;;;;3.92;0.70;;;;;;;30.95;49.94;101047.88;5174350;28;20029;-76
2022/07/24 07:51:43;;;;;;;4.40;0.90;;;;;;;29.90;51.68;101048.91;5176281;28;21301;-75
2022/07/24 07:54:14;;;;;;;5.93;0.60;;;;;;;31.23;49.55;101049.19;5177923;28;20032;-75
2022/07/24 07:56:44;;;;;;;3.00;0.68;;;;;;;30.48;52.22;101052.34;5178675;28;20395;-76
2022/07/24 07:59:15;;;;;;;2.38;0.77;;;;;;;29.80;52.17;101055.47;5187981;28;20021;-75
2022/07/24 08:01:45;;;;;;;2.25;0.82;;;;;;;30.03;52.83;101061.94;5189148;28;20083;-75
2022/07/24 08:04:16;;;;;;;1.00;0.60;;;;;;;31.66;49.63;101046.78;5177397;28;20112;-75
2022/07/24 08:06:46;;;;;;;2.00;0.70;;;;;;;31.41;49.80;101041.66;5180389;28;20040;-76
2022/07/24 08:09:17;;;;;;;2.33;0.70;;;;;;;30.84;49.89;101043.69;5180255;28;20033;-76
2022/07/24 08:11:47;;;;;;;1.80;0.70;;;;;;;30.59;52.36;101051.19;5180689;28;20030;-75
2022/07/24 08:14:17;;;;;;;1.52;0.80;;;;;;;31.90;49.42;101043.91;5180722;28;20021;-76
2022/07/24 08:16:48;;;;;;;4.13;1.02;;;;;;;31.74;49.34;101043.19;5176589;28;20030;-76
2022/07/24 08:19:18;;;;;;;1.77;0.88;;;;;;;31.65;49.87;101053.22;5180755;28;20554;-76
2022/07/24 08:21:49;;;;;;;1.93;0.77;;;;;;;34.01;45.81;101046.72;5179859;28;20026;-76
2022/07/24 08:24:20;;;;;;;1.45;0.73;;;;;;;31.17;48.46;101044.47;5180176;28;20285;-76
2022/07/24 08:26:51;;;;;;;1.77;0.68;;;;;;;32.84;47.23;101044.31;5180976;28;20068;-75
2022/07/24 08:29:21;;;;;;;2.25;0.90;;;;;;;32.39;48.02;101045.25;5179118;28;20382;-76
2022/07/24 08:31:52;;;;;;;1.95;1.00;;;;;;;31.24;48.88;101053.56;5179046;28;20448;-76
2022/07/24 08:34:23;;;;;;;2.47;1.10;;;;;;;30.90;49.80;101047.56;5182013;28;20396;-76
2022/07/24 08:36:53;;;;;;;1.10;0.80;;;;;;;31.95;48.71;101040.66;5188851;28;20041;-75
2022/07/24 08:39:24;;;;;;;2.33;0.90;;;;;;;31.91;47.08;101042.06;5180240;28;20377;-75
2022/07/24 08:41:54;;;;;;;2.08;1.15;;;;;;;31.52;47.52;101039.41;5179792;28;20053;-75
2022/07/24 08:44:24;;;;;;;2.42;1.10;;;;;;;32.26;47.43;101038.78;5180131;28;20487;-75
2022/07/24 08:46:58;;;;;;;1.83;1.00;;;;;;;32.67;46.00;101032.78;5179618;28;20124;-75
2022/07/24 08:49:31;;;;;;;3.08;1.30;;;;;;;32.86;46.44;101043.13;5181060;28;20627;-76
2022/07/24 08:52:04;;;;;;;3.40;1.00;;;;;;;33.84;45.08;101034.44;5180977;28;20030;-76
2022/07/24 08:54:36;;;;;;;3.53;1.38;;;;;;;32.00;47.21;101033.72;5179150;28;20168;-72
2022/07/24 08:57:06;;;;;;;2.97;1.23;;;;;;;33.07;46.51;101041.34;5179235;28;20308;-76
2022/07/24 08:59:36;;;;;;;4.18;1.40;;;;;;;31.67;48.39;101029.53;5180694;28;20057;-76
2022/07/24 09:02:07;;;;;;;4.07;1.10;;;;;;;32.26;47.70;101042.34;5182079;28;20034;-76
2022/07/24 09:04:40;;;;;;;2.08;1.08;;;;;;;33.81;45.29;101034.81;5181021;28;20083;-75
2022/07/24 09:07:14;;;;;;;6.00;1.30;;;;;;;32.27;45.96;101030.47;5180185;28;20037;-76
2022/07/24 09:09:59;;;;;;;2.47;1.05;;;;;;;33.51;45.96;101033.19;5175247;28;20435;-76
2022/07/24 09:12:34;;;;;;;2.53;1.17;;;;;;;33.17;45.35;101038.34;5176039;28;20076;-76
2022/07/24 09:15:26;;;;;;;2.80;1.50;;;;;;;33.26;45.84;101035.38;5182428;28;20037;-76
2022/07/24 09:17:58;;;;;;;2.88;1.75;;;;;;;35.14;42.31;101030.91;5177498;28;20131;-75
2022/07/24 09:20:28;;;;;;;4.38;1.80;;;;;;;33.49;44.96;101037.97;5177830;28;20049;-72
2022/07/24 09:22:59;;;;;;;3.25;1.67;;;;;;;35.07;43.67;101021.91;5176159;28;20037;-75
2022/07/24 09:25:30;;;;;;;3.20;1.50;;;;;;;34.58;43.77;101026.56;5179164;28;20420;-75
2022/07/24 09:28:03;;;;;;;4.07;1.92;;;;;;;33.83;44.28;101024.59;5179707;28;20041;-75
2022/07/24 09:30:37;;;;;;;4.40;1.40;;;;;;;33.64;45.33;101033.34;5177166;28;20033;-75
2022/07/24 09:33:10;;;;;;;3.28;1.60;;;;;;;34.49;44.66;101030.47;5181257;28;20276;-75
2022/07/24 09:35:44;;;;;;;3.15;1.50;;;;;;;35.28;43.95;101022.63;5177224;28;20029;-75
2022/07/24 09:38:22;;;;;;;3.80;1.70;;;;;;;35.49;43.62;101022.53;5174553;28;20034;-76
2022/07/24 09:40:56;;;;;;;3.40;1.60;;;;;;;35.70;43.34;101027.00;5178938;28;20124;-74
2022/07/24 09:43:28;;;;;;;5.75;1.88;;;;;;;33.67;44.44;101022.09;5187764;28;20060;-75
2022/07/24 09:46:03;;;;;;;4.53;1.60;;;;;;;33.53;45.29;101017.56;5187671;28;20052;-75
2022/07/24 09:48:35;;;;;;;;;;;;;;;34.50;44.28;100999.53;5186039;28;20269;-75
2022/07/24 09:51:10;;;;;;;3.35;1.70;;;;;;;34.17;46.10;101011.16;5191047;28;19975;-76
2022/07/24 09:53:43;;;;;;;3.60;1.55;;;;;;;34.34;44.04;101004.44;5184264;28;20072;-75
2022/07/24 09:56:16;;;;;;;4.72;1.67;;;;;;;32.41;47.09;100999.03;5184301;28;20120;-75
2022/07/24 09:58:46;;;;;;;3.63;1.80;;;;;;;32.21;46.42;101008.72;5183827;28;20030;-76
2022/07/24 10:01:19;;;;;;;3.20;1.73;;;;;;;33.51;46.25;101003.34;5180739;28;20735;-75
2022/07/24 10:03:51;;;;;;;4.80;1.80;;;;;;;33.02;46.28;100992.31;5177266;28;20937;-75
2022/07/24 10:06:25;;;;;;;8.20;1.73;;;;;;;33.08;46.90;100991.53;5176597;28;20049;-75
2022/07/24 10:08:56;;;;;;;7.03;1.77;;;;;;;33.54;47.05;100989.41;5176452;28;20700;-75
2022/07/24 10:11:27;;;;;;;3.58;1.75;;;;;;;33.23;46.96;100981.53;5177672;28;20045;-75
2022/07/24 10:13:57;;;;;;;3.15;1.60;;;;;;;33.66;44.69;100977.03;5189264;28;20025;-75
2022/07/24 10:16:30;;;;;;;5.13;1.70;;;;;;;33.14;45.92;100987.22;5187631;28;20029;-73
2022/07/24 10:19:03;;;;;;;4.28;1.60;;;;;;;33.16;45.58;100980.56;5190447;28;20029;-75
2022/07/24 10:21:36;;;;;;;2.60;1.67;;;;;;;31.82;46.89;100986.31;5187655;28;20034;-73
2022/07/24 10:24:45;;;;;;;5.03;1.77;;;;;;;31.31;46.91;100989.66;5186249;28;20041;-75
2022/07/24 10:27:28;;;;;;;4.95;1.80;;;;;;;31.04;48.09;100980.13;5174728;28;20060;-74
2022/07/24 10:30:01;;;;;;;3.50;1.90;;;;;;;31.10;48.46;100978.59;5181696;28;20080;-75
2022/07/24 10:32:33;;;;;;;3.65;1.88;;;;;;;30.80;48.67;100975.88;5187178;28;20040;-74
2022/07/24 10:35:16;;;;;;;3.80;2.00;;;;;;;30.25;49.10;100983.06;5187079;28;20044;-74
2022/07/24 10:37:58;;;;;;;5.45;2.00;;;;;;;29.96;48.61;100974.59;5184488;28;20628;-73
2022/07/24 10:40:44;;;;;;;3.58;1.70;;;;;;;30.43;49.17;100978.31;5185709;28;20056;-74
2022/07/24 10:43:19;;;;;;;3.55;1.80;;;;;;;29.43;49.24;100972.31;5175693;28;20062;-75
2022/07/24 10:45:56;;;;;;;4.72;2.00;;;;;;;30.14;50.95;100961.81;5173760;28;20057;-74
2022/07/24 10:48:30;;;;;;;5.25;1.80;;;;;;;29.92;49.79;100963.28;5175648;28;20348;-73
2022/07/24 10:51:05;;;;;;;4.72;1.70;;;;;;;30.11;50.52;100954.88;5176623;28;20021;-75
2022/07/24 10:53:38;;;;;;;4.55;2.08;;;;;;;30.05;49.83;100946.66;5175131;28;20105;-74
2022/07/24 10:56:26;;;;;;;3.15;1.88;;;;;;;29.74;50.23;100945.63;5176007;28;20111;-74
2022/07/24 10:59:07;;;;;;;4.97;2.00;;;;;;;29.54;49.70;100950.47;5175961;28;20033;-74
2022/07/24 11:01:47;;;;;;;2.65;1.70;;;;;;;29.32;49.83;100952.91;5189957;28;20434;-74
2022/07/24 11:04:23;;;;;;;5.05;1.83;;;;;;;29.50;49.43;100951.81;5188126;28;20042;-72
2022/07/24 11:06:56;;;;;;;2.67;1.77;;;;;;;29.72;48.40;100947.63;5186189;28;20815;-75
2022/07/24 11:09:28;;;;;;;3.45;1.77;;;;;;;29.89;49.75;100944.75;5185557;28;20043;-74
2022/07/24 11:11:58;;;;;;;5.40;1.92;;;;;;;29.77;49.21;100937.19;5187473;28;20026;-74
2022/07/24 11:14:38;;;;;;;3.70;1.70;;;;;;;29.39;48.08;100937.78;5185744;28;20096;-74
2022/07/24 11:17:47;;;;;;;6.30;1.80;;;;;;;29.62;48.64;100928.94;5187509;28;20310;-74
2022/07/24 11:20:21;;;;;;;4.10;1.77;;;;;;;29.99;49.73;100931.97;5185503;28;20029;-74
2022/07/24 11:22:54;;;;;;;5.32;1.90;;;;;;;30.01;49.55;100929.06;5188736;28;20387;-75
2022/07/24 11:25:28;;;;;;;2.95;1.70;;;;;;;30.04;49.37;100929.63;5178796;28;20037;-73
2022/07/24 11:28:12;;;;;;;2.55;1.42;;;;;;;30.18;49.51;100930.78;5178509;28;20483;-74
2022/07/24 11:30:44;;;;;;;4.18;1.70;;;;;;;30.27;48.95;100932.47;5175359;28;20041;-74
2022/07/24 11:33:21;;;;;;;3.78;1.80;;;;;;;30.27;48.21;100929.75;5171245;28;20110;-74
2022/07/24 11:35:51;;;;;;;2.42;1.48;;;;;;;30.24;48.05;100920.13;5182762;28;20045;-75
2022/07/24 11:38:28;;;;;;;2.03;1.40;;;;;;;30.12;48.28;100926.06;5167447;28;20197;-73
2022/07/24 11:41:06;;;;;;;3.65;1.48;;;;;;;30.03;48.36;100924.38;5170714;28;20522;-75
2022/07/24 11:43:50;;;;;;;2.72;1.45;;;;;;;29.76;48.38;100924.72;5191682;28;20037;-74
2022/07/24 11:46:37;;;;;;;3.50;1.67;;;;;;;30.03;48.16;100916.28;5188683;28;20056;-76